Terminal Aerodrome Forecast
Issued by NWS Wakefield, VA

Home | Current Version | Previous Version | Text Only | Print | Product List | Glossary On
Versions: 1 2 3 4 5 6 7 8 9 10 11 12 13 14 15
000
FTUS41 KAKQ 010500
TAFECG
TAF
KECG 010527Z 0106/0206 01007KT P6SM BKN200
     FM011000 03007KT P6SM OVC080
     FM011400 03008KT P6SM OVC040
     FM011900 07007KT 4SM -RA BR OVC020
     FM012100 15007KT 2SM -RA BR OVC007=

USA.gov is the U.S. government's official web portal to all federal, state and local government web resources and services.